Terminal Aerodrome Forecast
Issued by NWS Central Illinois

Home | Current Version | Previous Version | Text Only | Print | Product List | Glossary On
Versions: 1 2 3 4 5 6 7 8 9 10 11 12 13 14 15
000
FTUS43 KILX 221700 AAA
TAFPIA
TAF AMD
KPIA 221747Z 2218/2318 21013KT P6SM SCT050 BKN250
     FM222300 23007KT P6SM VCTS SCT060CB
      TEMPO 2300/2304 4SM -TSRA SCT020CB BKN030CB
     FM230600 31007KT 5SM BR BKN025
     FM231200 01010KT P6SM SCT060 BKN250=

USA.gov is the U.S. government's official web portal to all federal, state and local government web resources and services.